Aeroporto :
LOGIN :

Iscrizione | Disclaimer

   EN    FR    IT 

 










Sommario :    VFR   VFR Marginale   IFR   IFR Intensivo   IFR Molto Intensivo
Visibilità : 
Base nubi : 
>= 8 km
>= 3000ft
5 / 8 km
1000 / 3000 ft
1500m / 5 km
500 / 1000 ft
800 / 1500m
200 / 500 ft
< 800m
< 200 ft
Simboli :   Temporali  Nebbia  Neve Forte  Precipitazioni Forti  Vento > 20 kt
SIGMETs :   Varie  Temporali  Ghiacco  Turbolenza  Onda orograficha  Ceneri Vulcaniche






- Altitudine del aeroporto : 665 ft
- Codice IATA : NOC


EIKN - Connaught / Knock- Ireland West

ULTIMO METAR :
  • 101700Z 14002KT 9999 FEW022 SCT045 OVC120 18/16 Q1018 NOSIG

METARs OBSOLETI :
  • 101630Z 12003KT 9999 SCT022 SCT038 OVC120 18/16 Q1018 NOSIG
  • 101600Z 11003KT 9999 SCT022 SCT040 BKN120 18/16 Q1018 NOSIG
  • 101530Z 11003KT 9999 SCT022 BKN042 BKN120 19/15 Q1019 NOSIG

TAF TAF EIKN
Valido dal 10 a 18 ore il 11 a 18 ore UTC


101700Z 1018/1118 VRB03KT 9999 SCT025 BKN040
PROB30
TEMPO 1018/1021 5000 -SHRA BKN012 SCT040CB
TEMPO 1100/1108 3000 BR BKN003
PROB40
TEMPO 1101/1107 0400 FG BKN001



MetMap, La meteo Aeronautica in un colpo d'occhio ! - Copyright ORBIFLY Dicembre 2007 - Disclaimer

ORBIFLY MET'MAP TEAM :

Programmazione e sviluppo : Alexandra Zaïnal
Concezione : Baudouin d'Aumeries
Aiuto per la programmazione : Marc-Olivier Méhu
Supporto tecnico e logistico : Manuel Goepfert
Aiuto per la traduzione : Arnaldo La Scala

Contatto : metmap@orbifly.com




FONTI E CREDITI :

   NOAA